createdAt,value
2018-01-01T00:00:19.965Z,9.51
2018-01-01T00:01:47.459Z,9.52
2018-01-01T00:03:14.383Z,9.53
2018-01-01T00:04:41.896Z,9.54
2018-01-01T00:06:10.296Z,9.55
2018-01-01T00:07:36.518Z,9.56
2018-01-01T00:09:03.907Z,9.56
2018-01-01T00:10:31.295Z,9.57
2018-01-01T00:11:58.626Z,9.58
2018-01-01T00:13:26.972Z,9.58
2018-01-01T00:14:47.262Z,9.59
2018-01-01T00:16:20.594Z,9.60
2018-01-01T00:17:48.919Z,9.61
2018-01-01T00:19:14.793Z,9.62
2018-01-01T00:20:41.987Z,9.62
2018-01-01T00:22:10.405Z,9.63
2018-01-01T00:23:36.754Z,9.64
2018-01-01T00:25:05.056Z,9.66
2018-01-01T00:26:32.602Z,9.67
2018-01-01T00:27:58.786Z,9.68
2018-01-01T00:29:26.257Z,9.69
2018-01-01T00:30:53.609Z,9.69
2018-01-01T00:32:22.016Z,9.70
2018-01-01T00:33:49.523Z,9.71
2018-01-01T00:35:15.987Z,9.71
2018-01-01T00:36:43.186Z,9.72
2018-01-01T00:38:10.626Z,9.72
2018-01-01T00:39:37.966Z,9.73
2018-01-01T00:41:05.356Z,9.74
2018-01-01T00:42:32.825Z,9.73
2018-01-01T00:44:01.223Z,9.73
2018-01-01T00:45:27.445Z,9.73
2018-01-01T00:46:54.779Z,9.74
2018-01-01T00:48:22.132Z,9.75
2018-01-01T00:49:49.455Z,9.76
2018-01-01T00:51:16.791Z,9.77
2018-01-01T00:52:43.889Z,9.77
2018-01-01T00:54:11.388Z,9.78
2018-01-01T00:55:39.883Z,9.79
2018-01-01T00:57:07.286Z,9.80
2018-01-01T00:58:34.503Z,9.80
2018-01-01T01:00:00.927Z,9.80
2018-01-01T01:01:28.321Z,9.80
2018-01-01T01:02:49.638Z,9.80
2018-01-01T01:04:22.991Z,9.80
2018-01-01T01:05:50.267Z,9.80
2018-01-01T01:07:18.590Z,9.78
2018-01-01T01:08:44.977Z,9.73
2018-01-01T01:10:12.410Z,9.72
2018-01-01T01:11:40.737Z,9.68
2018-01-01T01:13:07.028Z,9.65
2018-01-01T01:14:34.474Z,9.62
2018-01-01T01:16:02.924Z,9.58
2018-01-01T01:17:29.104Z,9.53
2018-01-01T01:18:56.518Z,9.48
2018-01-01T01:20:23.660Z,9.45
2018-01-01T01:21:50.960Z,9.43
2018-01-01T01:23:18.293Z,9.40
2018-01-01T01:24:46.461Z,9.37
2018-01-01T01:26:12.950Z,9.35
2018-01-01T01:27:41.166Z,9.32
2018-01-01T01:29:07.558Z,9.32
2018-01-01T01:30:34.812Z,9.30
2018-01-01T01:32:03.183Z,9.30
2018-01-01T01:33:30.566Z,9.30
2018-01-01T01:34:56.624Z,9.30
2018-01-01T01:36:23.893Z,9.32
2018-01-01T01:37:51.305Z,9.33
2018-01-01T01:39:18.712Z,9.34
2018-01-01T01:40:45.986Z,9.35
2018-01-01T01:42:13.503Z,9.36
2018-01-01T01:43:41.732Z,9.37
2018-01-01T01:45:09.142Z,9.38
2018-01-01T01:46:36.385Z,9.39
2018-01-01T01:48:02.852Z,9.39
2018-01-01T01:49:30.163Z,9.40
2018-01-01T01:50:57.472Z,9.40
2018-01-01T01:52:24.895Z,9.39
2018-01-01T01:53:52.017Z,9.39
2018-01-01T01:55:19.316Z,9.39
2018-01-01T01:56:46.526Z,9.39
2018-01-01T01:58:13.804Z,9.39
2018-01-01T01:59:41.181Z,9.39
2018-01-01T02:01:08.390Z,9.39
2018-01-01T02:02:35.788Z,9.38
2018-01-01T02:04:04.110Z,9.39
2018-01-01T02:05:30.166Z,9.38
2018-01-01T02:06:57.235Z,9.38
2018-01-01T02:08:24.241Z,9.38
2018-01-01T02:09:51.592Z,9.37
2018-01-01T02:11:18.804Z,9.36
2018-01-01T02:12:47.154Z,9.35
2018-01-01T02:14:14.494Z,9.35
2018-01-01T02:15:40.946Z,9.35
2018-01-01T02:17:08.308Z,9.35
2018-01-01T02:18:36.668Z,9.34
2018-01-01T02:20:02.991Z,9.34
2018-01-01T02:21:30.179Z,9.34
2018-01-01T02:22:57.504Z,9.33
2018-01-01T02:24:25.862Z,9.33
2018-01-01T02:25:53.247Z,9.33
2018-01-01T02:27:20.560Z,9.33
2018-01-01T02:28:46.743Z,9.32
2018-01-01T02:30:13.872Z,9.33
2018-01-01T02:31:41.077Z,9.33
2018-01-01T02:33:09.457Z,9.33
2018-01-01T02:34:35.787Z,9.33
2018-01-01T02:36:03.060Z,9.33
2018-01-01T02:37:30.444Z,9.32
2018-01-01T02:38:57.792Z,9.32
2018-01-01T02:40:25.972Z,9.29
2018-01-01T02:41:52.238Z,9.28
2018-01-01T02:43:19.568Z,9.28
2018-01-01T02:44:46.737Z,9.27
2018-01-01T02:46:13.968Z,9.27
2018-01-01T02:47:41.431Z,9.27
2018-01-01T02:49:08.771Z,9.26
2018-01-01T02:50:36.079Z,9.27
2018-01-01T02:52:03.478Z,9.26
2018-01-01T02:53:30.865Z,9.26
2018-01-01T02:54:58.984Z,9.25
2018-01-01T02:56:25.311Z,9.25
2018-01-01T02:57:53.664Z,9.23
2018-01-01T02:59:20.059Z,9.22
2018-01-01T03:00:48.426Z,9.22
2018-01-01T03:02:14.704Z,9.22
2018-01-01T03:03:42.239Z,9.23
2018-01-01T03:05:10.588Z,9.24
2018-01-01T03:06:36.789Z,9.23
2018-01-01T03:08:04.052Z,9.23
2018-01-01T03:09:31.450Z,9.23
2018-01-01T03:10:58.747Z,9.23
2018-01-01T03:12:25.949Z,9.19
2018-01-01T03:13:53.171Z,9.16
2018-01-01T03:15:21.416Z,9.18
2018-01-01T03:16:47.752Z,9.17
2018-01-01T03:18:14.995Z,9.17
2018-01-01T03:19:42.343Z,9.19
2018-01-01T03:21:09.778Z,9.20
2018-01-01T03:22:37.001Z,9.22
2018-01-01T03:24:04.284Z,9.23
2018-01-01T03:25:31.531Z,9.24
2018-01-01T03:26:58.743Z,9.25
2018-01-01T03:28:25.981Z,9.26
2018-01-01T03:29:54.391Z,9.26
2018-01-01T03:31:20.586Z,9.23
2018-01-01T03:32:48.920Z,9.20
2018-01-01T03:34:15.327Z,9.15
2018-01-01T03:35:42.576Z,9.12
2018-01-01T03:37:09.926Z,9.09
2018-01-01T03:38:37.370Z,9.09
2018-01-01T03:40:04.370Z,9.08
2018-01-01T03:41:32.716Z,9.06
2018-01-01T03:42:59.532Z,9.05
2018-01-01T03:44:25.759Z,9.05
2018-01-01T03:45:53.170Z,9.03
2018-01-01T03:47:20.407Z,9.00
2018-01-01T03:48:48.740Z,8.98
2018-01-01T03:50:14.989Z,8.96
2018-01-01T03:51:41.963Z,8.95
2018-01-01T03:53:10.319Z,8.94
2018-01-01T03:54:36.613Z,8.94
2018-01-01T03:56:03.818Z,8.92
2018-01-01T03:57:31.263Z,8.93
2018-01-01T03:58:58.584Z,8.95
2018-01-01T04:00:26.043Z,8.96
2018-01-01T04:01:53.249Z,8.95
2018-01-01T04:03:20.669Z,8.92
2018-01-01T04:04:49.000Z,8.88
2018-01-01T04:06:15.261Z,8.87
2018-01-01T04:07:42.691Z,8.84
2018-01-01T04:09:09.927Z,8.81
2018-01-01T04:10:38.163Z,8.80
2018-01-01T04:12:04.588Z,8.77
2018-01-01T04:13:32.872Z,8.75
2018-01-01T04:14:59.175Z,8.73
2018-01-01T04:16:26.535Z,8.75
2018-01-01T04:17:53.970Z,8.73
2018-01-01T04:19:21.237Z,8.72
2018-01-01T04:20:48.532Z,8.73
2018-01-01T04:22:16.818Z,8.73
2018-01-01T04:23:43.004Z,8.72
2018-01-01T04:25:11.201Z,8.74
2018-01-01T04:26:37.337Z,8.78
2018-01-01T04:28:04.530Z,8.79
2018-01-01T04:29:32.914Z,8.79
2018-01-01T04:30:59.245Z,8.82
2018-01-01T04:32:26.583Z,8.85
2018-01-01T04:33:53.780Z,8.88
2018-01-01T04:35:21.057Z,8.89
2018-01-01T04:36:48.422Z,8.91
2018-01-01T04:38:16.652Z,8.94
2018-01-01T04:39:43.999Z,8.97
2018-01-01T04:41:11.360Z,8.98
2018-01-01T04:42:37.572Z,8.99
2018-01-01T04:44:05.866Z,9.00
2018-01-01T04:45:32.060Z,9.00
2018-01-01T04:46:59.236Z,9.00
2018-01-01T04:48:26.638Z,9.00
2018-01-01T04:49:53.920Z,8.99
2018-01-01T04:51:21.185Z,8.99
2018-01-01T04:52:48.502Z,8.99
2018-01-01T04:54:16.736Z,8.98
2018-01-01T04:55:42.894Z,8.98
2018-01-01T04:57:10.173Z,8.97
2018-01-01T04:58:37.562Z,8.96
2018-01-01T05:00:04.923Z,8.95
2018-01-01T05:01:33.342Z,8.96
2018-01-01T05:02:59.821Z,8.96
2018-01-01T05:04:28.135Z,8.96
2018-01-01T05:05:54.342Z,8.95
2018-01-01T05:07:21.773Z,8.94
2018-01-01T05:08:49.081Z,8.93
2018-01-01T05:10:16.211Z,8.92
2018-01-01T05:11:43.504Z,8.91
2018-01-01T05:13:10.837Z,8.89
2018-01-01T05:14:38.200Z,8.88
2018-01-01T05:16:05.502Z,8.86
2018-01-01T05:17:33.775Z,8.85
2018-01-01T05:19:00.166Z,8.84
2018-01-01T05:20:28.176Z,8.84
2018-01-01T05:21:54.582Z,8.83
2018-01-01T05:23:23.031Z,8.83
2018-01-01T05:24:49.235Z,8.83
2018-01-01T05:26:16.584Z,8.83
2018-01-01T05:27:43.634Z,8.83
2018-01-01T05:29:10.976Z,8.82
2018-01-01T05:30:38.212Z,8.81
2018-01-01T05:32:05.721Z,8.81
2018-01-01T05:33:32.898Z,8.80
2018-01-01T05:35:00.090Z,8.80
2018-01-01T05:36:28.398Z,8.80
2018-01-01T05:37:54.566Z,8.79
2018-01-01T05:39:21.901Z,8.80
2018-01-01T05:40:50.119Z,8.80
2018-01-01T05:42:16.504Z,8.81
2018-01-01T05:43:43.486Z,8.82
2018-01-01T05:45:11.552Z,8.82
2018-01-01T05:46:37.755Z,8.83
2018-01-01T05:48:04.938Z,8.83
2018-01-01T05:49:32.237Z,8.84
2018-01-01T05:51:00.346Z,8.86
2018-01-01T05:52:26.783Z,8.86
2018-01-01T05:53:53.916Z,8.88
2018-01-01T05:55:21.125Z,8.88
2018-01-01T05:56:49.091Z,8.88
2018-01-01T05:58:16.264Z,8.87
2018-01-01T05:59:43.501Z,8.86
2018-01-01T06:01:09.902Z,8.85
2018-01-01T06:02:38.127Z,8.85
2018-01-01T06:04:04.360Z,8.84
2018-01-01T06:05:31.611Z,8.83
2018-01-01T06:06:58.917Z,8.83
2018-01-01T06:08:26.120Z,8.82
2018-01-01T06:09:54.683Z,8.82
2018-01-01T06:11:20.681Z,8.81
2018-01-01T06:12:47.823Z,8.81
2018-01-01T06:14:16.110Z,8.81
2018-01-01T06:15:43.091Z,8.80
2018-01-01T06:17:09.415Z,8.80
2018-01-01T06:18:37.599Z,8.80
2018-01-01T06:20:04.987Z,8.80
2018-01-01T06:21:31.390Z,8.80
2018-01-01T06:22:58.719Z,8.80
2018-01-01T06:24:26.037Z,8.80
2018-01-01T06:25:53.391Z,8.79
2018-01-01T06:27:21.702Z,8.79
2018-01-01T06:28:47.898Z,8.78
2018-01-01T06:30:16.075Z,8.78
2018-01-01T06:31:43.209Z,8.78
2018-01-01T06:33:10.555Z,8.78
2018-01-01T06:34:36.687Z,8.76
2018-01-01T06:36:04.039Z,8.74
2018-01-01T06:37:31.288Z,8.73
2018-01-01T06:38:58.756Z,8.72
2018-01-01T06:40:27.184Z,8.71
2018-01-01T06:41:54.519Z,8.70
2018-01-01T06:43:21.796Z,8.69
2018-01-01T06:44:47.965Z,8.70
2018-01-01T06:46:15.277Z,8.70
2018-01-01T06:47:42.533Z,8.71
2018-01-01T06:49:09.936Z,8.71
2018-01-01T06:50:37.196Z,8.71
2018-01-01T06:52:04.527Z,8.71
2018-01-01T06:53:37.488Z,8.71
2018-01-01T06:54:59.625Z,8.70
2018-01-01T06:56:25.774Z,8.70
2018-01-01T06:57:53.073Z,8.70
2018-01-01T06:59:20.491Z,8.70
2018-01-01T07:00:48.746Z,8.69
2018-01-01T07:02:14.718Z,8.69
2018-01-01T07:03:42.058Z,8.68
2018-01-01T07:05:09.261Z,8.68
2018-01-01T07:06:36.641Z,8.67
2018-01-01T07:08:05.135Z,8.67
2018-01-01T07:09:32.462Z,8.65
2018-01-01T07:10:58.608Z,8.64
2018-01-01T07:12:26.886Z,8.63
2018-01-01T07:13:53.145Z,8.62
2018-01-01T07:15:20.287Z,8.61
2018-01-01T07:16:47.541Z,8.60
2018-01-01T07:18:15.624Z,8.59
2018-01-01T07:19:41.950Z,8.58
2018-01-01T07:21:10.399Z,8.58
2018-01-01T07:22:36.536Z,8.58
2018-01-01T07:24:03.826Z,8.59
2018-01-01T07:25:31.040Z,8.59
2018-01-01T07:26:58.197Z,8.60
2018-01-01T07:28:25.669Z,8.60
2018-01-01T07:29:53.872Z,8.59
2018-01-01T07:31:20.141Z,8.60
2018-01-01T07:32:47.538Z,8.59
2018-01-01T07:34:14.725Z,8.59
2018-01-01T07:35:43.114Z,8.60
2018-01-01T07:37:09.463Z,8.60
2018-01-01T07:38:37.846Z,8.61
2018-01-01T07:40:04.078Z,8.61
2018-01-01T07:41:31.379Z,8.62
2018-01-01T07:42:58.835Z,8.63
2018-01-01T07:44:26.230Z,8.63
2018-01-01T07:45:53.331Z,8.64
2018-01-01T07:47:20.706Z,8.66
2018-01-01T07:48:49.118Z,8.66
2018-01-01T07:50:16.248Z,8.67
2018-01-01T07:51:42.507Z,8.67
2018-01-01T07:53:09.815Z,8.67
2018-01-01T07:54:37.209Z,8.67
2018-01-01T07:56:04.291Z,8.66
2018-01-01T07:57:32.673Z,8.66
2018-01-01T07:58:59.026Z,8.65
2018-01-01T08:00:26.454Z,8.65
2018-01-01T08:01:54.343Z,8.65
2018-01-01T08:03:20.673Z,8.64
2018-01-01T08:04:47.925Z,8.64
2018-01-01T08:06:14.886Z,8.63
2018-01-01T08:07:42.292Z,8.63
2018-01-01T08:09:10.643Z,8.63
2018-01-01T08:10:37.200Z,8.64
2018-01-01T08:12:04.463Z,8.64
2018-01-01T08:13:32.649Z,8.64
2018-01-01T08:14:58.911Z,8.63
2018-01-01T08:16:26.200Z,8.63
2018-01-01T08:17:54.367Z,8.62
2018-01-01T08:19:20.509Z,8.60
2018-01-01T08:20:47.441Z,8.60
2018-01-01T08:22:15.138Z,8.58
2018-01-01T08:23:42.340Z,8.57
2018-01-01T08:25:09.666Z,8.57
2018-01-01T08:26:35.912Z,8.56
2018-01-01T08:28:04.327Z,8.54
2018-01-01T08:29:31.798Z,8.52
2018-01-01T08:30:58.063Z,8.50
2018-01-01T08:32:26.354Z,8.48
2018-01-01T08:33:53.525Z,8.47
2018-01-01T08:35:19.991Z,8.46
2018-01-01T08:36:46.847Z,8.45
2018-01-01T08:38:13.982Z,8.44
2018-01-01T08:39:41.460Z,8.43
2018-01-01T08:41:08.774Z,8.43
2018-01-01T08:44:02.641Z,8.41
2018-01-01T08:45:30.004Z,8.43
2018-01-01T08:46:57.339Z,8.44
2018-01-01T08:48:24.358Z,8.45
2018-01-01T08:49:51.511Z,8.47
2018-01-01T08:51:18.863Z,8.49
2018-01-01T08:52:46.011Z,8.48
2018-01-01T08:54:13.016Z,8.50
2018-01-01T08:55:40.380Z,8.51
2018-01-01T08:57:07.645Z,8.52
2018-01-01T08:58:34.952Z,8.47
2018-01-01T09:00:02.294Z,8.48
2018-01-01T09:01:29.752Z,8.49
2018-01-01T09:02:56.814Z,8.46
2018-01-01T09:04:24.497Z,8.46
2018-01-01T09:05:52.842Z,8.45
2018-01-01T09:07:20.129Z,8.44
2018-01-01T09:08:46.467Z,8.35
2018-01-01T09:10:13.573Z,8.29
2018-01-01T09:11:40.844Z,8.28
2018-01-01T09:13:08.229Z,8.29
2018-01-01T09:14:36.426Z,8.29
2018-01-01T09:16:02.751Z,8.31
2018-01-01T09:17:30.017Z,8.29
2018-01-01T09:18:58.252Z,8.29
2018-01-01T09:20:24.433Z,8.27
2018-01-01T09:21:52.586Z,8.19
2018-01-01T09:23:18.844Z,8.11
2018-01-01T09:24:46.060Z,8.03
2018-01-01T09:26:13.187Z,8.03
2018-01-01T09:27:40.494Z,8.02
2018-01-01T09:29:07.798Z,7.99
2018-01-01T09:30:36.183Z,7.98
2018-01-01T09:32:02.403Z,7.99
2018-01-01T09:33:30.709Z,8.05
2018-01-01T09:34:56.993Z,8.04
2018-01-01T09:36:25.238Z,8.04
2018-01-01T09:37:51.565Z,8.03
2018-01-01T09:39:18.685Z,8.01
2018-01-01T09:40:39.879Z,7.98
2018-01-01T09:42:13.100Z,7.99
2018-01-01T09:43:41.421Z,8.04
2018-01-01T09:45:07.952Z,8.08
2018-01-01T09:46:35.058Z,8.06
2018-01-01T09:48:03.272Z,8.06
2018-01-01T09:49:30.455Z,8.05
2018-01-01T09:50:56.692Z,8.06
2018-01-01T09:52:23.968Z,8.06
2018-01-01T09:53:51.323Z,8.08
2018-01-01T09:55:18.580Z,8.10
2018-01-01T09:56:46.932Z,8.12
2018-01-01T09:58:14.084Z,8.16
2018-01-01T09:59:40.384Z,8.23
2018-01-01T10:01:07.505Z,8.29
2018-01-01T10:02:34.777Z,8.37
2018-01-01T10:04:01.941Z,8.37
2018-01-01T10:05:28.918Z,8.42
2018-01-01T10:06:59.245Z,8.46
2018-01-01T10:08:23.556Z,8.45
2018-01-01T10:09:50.736Z,8.44
2018-01-01T10:11:18.855Z,8.45
2018-01-01T10:12:45.090Z,8.46
2018-01-01T10:14:13.463Z,8.46
2018-01-01T10:15:39.608Z,8.47
2018-01-01T10:17:07.728Z,8.48
2018-01-01T10:18:33.854Z,8.47
2018-01-01T10:20:01.231Z,8.47
2018-01-01T10:21:29.627Z,8.45
2018-01-01T10:22:55.924Z,8.43
2018-01-01T10:24:23.386Z,8.42
2018-01-01T10:25:51.707Z,8.42
2018-01-01T10:27:17.916Z,8.39
2018-01-01T10:28:45.054Z,8.37
2018-01-01T10:30:12.392Z,8.38
2018-01-01T10:31:40.721Z,8.36
2018-01-01T10:33:07.039Z,8.34
2018-01-01T10:34:34.342Z,8.35
2018-01-01T10:36:01.545Z,8.36
2018-01-01T10:37:28.872Z,8.33
2018-01-01T10:38:55.965Z,8.34
2018-01-01T10:40:23.147Z,8.31
2018-01-01T10:41:50.384Z,8.32
2018-01-01T10:43:17.782Z,8.31
2018-01-01T10:44:45.975Z,8.28
2018-01-01T10:46:12.191Z,8.28
2018-01-01T10:47:39.475Z,8.23
2018-01-01T10:49:06.560Z,8.22
2018-01-01T10:50:33.875Z,8.22
2018-01-01T10:52:00.911Z,8.25
2018-01-01T10:53:28.136Z,8.23
2018-01-01T10:54:55.294Z,8.18
2018-01-01T10:56:23.567Z,8.14
2018-01-01T10:57:50.959Z,8.10
2018-01-01T10:59:17.086Z,8.10
2018-01-01T11:00:45.302Z,8.04
2018-01-01T11:02:11.589Z,7.99
2018-01-01T11:03:38.881Z,8.01
2018-01-01T11:05:06.256Z,8.07
2018-01-01T11:06:33.509Z,8.12
2018-01-01T11:08:01.687Z,8.18
2018-01-01T11:09:28.270Z,8.26
2018-01-01T11:10:55.547Z,8.29
2018-01-01T11:12:23.724Z,8.24
2018-01-01T11:13:49.911Z,8.27
2018-01-01T11:15:16.875Z,8.29
2018-01-01T11:16:44.130Z,8.28
2018-01-01T11:18:11.475Z,8.29
2018-01-01T11:19:38.660Z,8.30
2018-01-01T11:21:06.174Z,8.31
2018-01-01T11:22:33.309Z,8.30
2018-01-01T11:24:01.449Z,8.33
2018-01-01T11:25:28.714Z,8.35
2018-01-01T11:26:54.491Z,8.37
2018-01-01T11:28:21.603Z,8.34
2018-01-01T11:29:48.675Z,8.32
2018-01-01T11:31:15.918Z,8.28
2018-01-01T11:32:43.065Z,8.21
2018-01-01T11:34:10.216Z,8.17
2018-01-01T11:35:38.614Z,8.13
2018-01-01T11:37:04.826Z,8.09
2018-01-01T11:38:32.066Z,8.09
2018-01-01T11:39:59.341Z,8.08
2018-01-01T11:41:26.591Z,8.08
2018-01-01T11:42:53.573Z,8.11
2018-01-01T11:44:21.913Z,8.17
2018-01-01T11:45:49.112Z,8.19
2018-01-01T11:47:14.859Z,8.19
2018-01-01T11:48:41.731Z,8.23
2018-01-01T11:50:09.063Z,8.25
2018-01-01T11:51:36.357Z,8.18
2018-01-01T11:53:03.547Z,8.18
2018-01-01T11:54:30.920Z,8.20
2018-01-01T11:55:59.143Z,8.22
2018-01-01T11:57:25.394Z,8.23
2018-01-01T11:58:52.633Z,8.21
2018-01-01T12:00:20.612Z,8.21
2018-01-01T12:01:47.658Z,8.20
2018-01-01T12:03:14.082Z,8.22
2018-01-01T12:04:41.470Z,8.22
2018-01-01T12:06:09.659Z,8.23
2018-01-01T12:07:36.870Z,8.26
2018-01-01T12:09:03.111Z,8.31
2018-01-01T12:10:30.468Z,8.35
2018-01-01T12:11:57.476Z,8.37
2018-01-01T12:13:24.663Z,8.33
2018-01-01T12:14:52.027Z,8.29
2018-01-01T12:16:19.368Z,8.26
2018-01-01T12:17:46.778Z,8.23
2018-01-01T12:19:14.051Z,8.25
2018-01-01T12:20:42.260Z,8.28
2018-01-01T12:22:08.243Z,8.30
2018-01-01T12:23:35.438Z,8.31
2018-01-01T12:25:02.416Z,8.35
2018-01-01T12:26:30.548Z,8.38
2018-01-01T12:27:56.771Z,8.35
2018-01-01T12:29:24.134Z,8.34
2018-01-01T12:30:51.528Z,8.30
2018-01-01T12:32:18.877Z,8.24
2018-01-01T12:33:46.115Z,8.20
2018-01-01T12:35:14.156Z,8.24
2018-01-01T12:36:40.405Z,8.31
2018-01-01T12:38:07.657Z,8.34
2018-01-01T12:39:34.911Z,8.37
2018-01-01T12:41:03.045Z,8.36
2018-01-01T12:42:29.276Z,8.33
2018-01-01T12:43:56.616Z,8.32
2018-01-01T12:45:23.902Z,8.33
2018-01-01T12:46:51.353Z,8.32
2018-01-01T12:48:18.460Z,8.39
2018-01-01T12:49:46.696Z,8.46
2018-01-01T12:51:13.094Z,8.50
2018-01-01T12:52:40.275Z,8.53
2018-01-01T12:54:08.497Z,8.52
2018-01-01T12:55:28.728Z,8.50
2018-01-01T12:57:02.094Z,8.51
2018-01-01T12:58:29.357Z,8.51
2018-01-01T12:59:56.610Z,8.43
2018-01-01T13:01:23.968Z,8.39
2018-01-01T13:02:52.148Z,8.41
2018-01-01T13:04:18.434Z,8.43
2018-01-01T13:05:45.380Z,8.38
2018-01-01T13:07:12.679Z,8.38
2018-01-01T13:08:39.956Z,8.35
2018-01-01T13:10:07.281Z,8.32
2018-01-01T13:11:35.684Z,8.31
2018-01-01T13:13:01.442Z,8.26
2018-01-01T13:14:28.677Z,8.24
2018-01-01T13:15:55.882Z,8.20
2018-01-01T13:17:22.926Z,8.16
2018-01-01T13:18:51.080Z,8.16
2018-01-01T13:20:16.960Z,8.13
2018-01-01T13:21:44.237Z,8.13
2018-01-01T13:23:11.490Z,8.14
2018-01-01T13:24:39.842Z,8.16
2018-01-01T13:26:06.186Z,8.17
2018-01-01T13:27:33.627Z,8.20
2018-01-01T13:29:00.927Z,8.19
2018-01-01T13:30:28.272Z,8.20
2018-01-01T13:31:56.477Z,8.21
2018-01-01T13:33:23.650Z,8.21
2018-01-01T13:34:49.724Z,8.22
2018-01-01T13:36:17.928Z,8.21
2018-01-01T13:37:44.823Z,8.21
2018-01-01T13:39:12.250Z,8.21
2018-01-01T13:40:39.518Z,8.22
2018-01-01T13:42:05.732Z,8.23
2018-01-01T13:43:33.825Z,8.24
2018-01-01T13:44:59.945Z,8.24
2018-01-01T13:46:28.201Z,8.23
2018-01-01T13:47:55.486Z,8.25
2018-01-01T13:49:21.138Z,8.28
2018-01-01T13:50:49.504Z,8.35
2018-01-01T13:52:15.747Z,8.39
2018-01-01T13:53:44.007Z,8.45
2018-01-01T13:55:10.131Z,8.47
2018-01-01T13:56:37.438Z,8.50
2018-01-01T13:58:04.792Z,8.55
2018-01-01T13:59:32.271Z,8.57
2018-01-01T14:01:00.432Z,8.57
2018-01-01T14:02:27.812Z,8.57
2018-01-01T14:03:55.113Z,8.54
2018-01-01T14:05:21.358Z,8.51
2018-01-01T14:06:48.565Z,8.47
2018-01-01T14:08:15.664Z,8.43
2018-01-01T14:09:43.153Z,8.41
2018-01-01T14:11:11.500Z,8.40
2018-01-01T14:12:37.518Z,8.37
2018-01-01T14:14:05.644Z,8.37
2018-01-01T14:15:31.873Z,8.34
2018-01-01T14:17:00.163Z,8.30
2018-01-01T14:18:26.521Z,8.28
2018-01-01T14:19:53.861Z,8.26
2018-01-01T14:21:20.973Z,8.24
2018-01-01T14:22:49.157Z,8.23
2018-01-01T14:24:15.289Z,8.23
2018-01-01T14:25:42.493Z,8.23
2018-01-01T14:27:10.731Z,8.23
2018-01-01T14:28:37.221Z,8.20
2018-01-01T14:30:04.343Z,8.20
2018-01-01T14:31:31.770Z,8.18
2018-01-01T14:32:58.955Z,8.15
2018-01-01T14:34:26.289Z,8.13
2018-01-01T14:35:53.729Z,8.11
2018-01-01T14:37:21.043Z,8.09
2018-01-01T14:38:49.306Z,8.06
2018-01-01T14:40:15.671Z,8.04
2018-01-01T14:41:52.253Z,8.01
2018-01-01T14:43:19.471Z,7.99
2018-01-01T14:44:46.269Z,7.96
2018-01-01T14:46:13.381Z,7.94
2018-01-01T14:47:40.841Z,7.91
2018-01-01T14:49:07.873Z,7.89
2018-01-01T14:50:35.230Z,7.86
2018-01-01T14:52:02.387Z,7.82
2018-01-01T14:53:30.543Z,7.80
2018-01-01T14:54:56.425Z,7.76
2018-01-01T14:56:23.677Z,7.74
2018-01-01T14:57:51.805Z,7.72
2018-01-01T14:59:17.996Z,7.70
2018-01-01T15:00:46.158Z,7.67
2018-01-01T15:02:13.399Z,7.64
2018-01-01T15:03:40.676Z,7.62
2018-01-01T15:05:06.918Z,7.59
2018-01-01T15:06:34.411Z,7.57
2018-01-01T15:08:01.392Z,7.57
2018-01-01T15:09:28.625Z,7.57
2018-01-01T15:10:55.722Z,7.57
2018-01-01T15:12:23.714Z,7.59
2018-01-01T15:13:50.882Z,7.59
2018-01-01T15:15:16.866Z,7.60
2018-01-01T15:16:43.784Z,7.60
2018-01-01T15:18:11.034Z,7.58
2018-01-01T15:19:38.342Z,7.57
2018-01-01T15:21:05.291Z,7.56
2018-01-01T15:22:33.531Z,7.57
2018-01-01T15:23:59.854Z,7.57
2018-01-01T15:25:28.231Z,7.57
2018-01-01T15:26:54.328Z,7.57
2018-01-01T15:28:21.661Z,7.57
2018-01-01T15:29:48.782Z,7.56
2018-01-01T15:31:16.045Z,7.57
2018-01-01T15:32:43.347Z,7.57
2018-01-01T15:34:10.678Z,7.58
2018-01-01T15:35:37.599Z,7.59
2018-01-01T15:37:05.025Z,7.59
2018-01-01T15:38:33.177Z,7.58
2018-01-01T15:39:59.145Z,7.58
2018-01-01T15:41:27.442Z,7.58
2018-01-01T15:42:53.272Z,7.59
2018-01-01T15:44:21.674Z,7.58
2018-01-01T15:45:47.994Z,7.59
2018-01-01T15:47:15.150Z,7.59
2018-01-01T15:48:41.693Z,7.58
2018-01-01T15:50:09.101Z,7.59
2018-01-01T15:51:37.117Z,7.57
2018-01-01T15:53:03.247Z,7.57
2018-01-01T15:54:30.439Z,7.57
2018-01-01T15:55:57.805Z,7.55
2018-01-01T15:57:25.953Z,7.54
2018-01-01T15:58:52.217Z,7.54
2018-01-01T16:00:19.523Z,7.53
2018-01-01T16:01:47.708Z,7.52
2018-01-01T16:03:13.664Z,7.51
2018-01-01T16:04:41.126Z,7.51
2018-01-01T16:06:07.842Z,7.49
2018-01-01T16:07:36.203Z,7.46
2018-01-01T16:09:03.651Z,7.45
2018-01-01T16:10:29.554Z,7.43
2018-01-01T16:11:56.844Z,7.42
2018-01-01T16:13:25.155Z,7.40
2018-01-01T16:14:51.360Z,7.38
2018-01-01T16:16:18.296Z,7.35
2018-01-01T16:17:46.628Z,7.33
2018-01-01T16:19:12.650Z,7.32
2018-01-01T16:20:39.293Z,7.31
2018-01-01T16:22:07.413Z,7.31
2018-01-01T16:23:33.127Z,7.32
2018-01-01T16:25:00.427Z,7.32
2018-01-01T16:26:28.813Z,7.33
2018-01-01T16:27:55.052Z,7.33
2018-01-01T16:29:23.155Z,7.33
2018-01-01T16:30:48.971Z,7.34
2018-01-01T16:32:16.379Z,7.35
2018-01-01T16:33:43.731Z,7.37
2018-01-01T16:35:10.828Z,7.37
2018-01-01T16:36:37.678Z,7.38
2018-01-01T16:38:05.018Z,7.38
2018-01-01T16:39:32.007Z,7.39
2018-01-01T16:40:59.291Z,7.39
2018-01-01T16:42:27.305Z,7.38
2018-01-01T16:43:53.503Z,7.39
2018-01-01T16:45:20.922Z,7.39
2018-01-01T16:46:48.904Z,7.40
2018-01-01T16:48:15.118Z,7.40
2018-01-01T16:49:48.407Z,7.40
2018-01-01T16:51:09.500Z,7.41
2018-01-01T16:52:36.883Z,7.42
2018-01-01T16:54:04.374Z,7.41
2018-01-01T16:55:31.720Z,7.41
2018-01-01T16:56:58.857Z,7.41
2018-01-01T16:58:27.286Z,7.42
2018-01-01T16:59:53.427Z,7.43
2018-01-01T17:01:20.491Z,7.43
2018-01-01T17:02:47.341Z,7.43
2018-01-01T17:04:14.489Z,7.43
2018-01-01T17:05:42.703Z,7.43
2018-01-01T17:07:09.141Z,7.43
2018-01-01T17:08:36.090Z,7.43
2018-01-01T17:10:04.368Z,7.43
2018-01-01T17:11:30.765Z,7.43
2018-01-01T17:12:58.146Z,7.43
2018-01-01T17:14:26.519Z,7.42
2018-01-01T17:15:52.727Z,7.41
2018-01-01T17:17:19.987Z,7.41
2018-01-01T17:18:48.065Z,7.40
2018-01-01T17:20:08.007Z,7.40
2018-01-01T17:21:41.192Z,7.38
2018-01-01T17:23:08.723Z,7.38
2018-01-01T17:24:37.164Z,7.37
2018-01-01T17:26:03.365Z,7.37
2018-01-01T17:27:30.705Z,7.36
2018-01-01T17:28:58.016Z,7.36
2018-01-01T17:30:26.023Z,7.37
2018-01-01T17:31:53.338Z,7.37
2018-01-01T17:33:19.655Z,7.37
2018-01-01T17:34:47.709Z,7.37
2018-01-01T17:36:13.772Z,7.35
2018-01-01T17:37:41.997Z,7.33
2018-01-01T17:39:08.281Z,7.33
2018-01-01T17:40:29.482Z,7.32
2018-01-01T17:42:03.500Z,7.32
2018-01-01T17:43:30.914Z,7.30
2018-01-01T17:44:57.092Z,7.29
2018-01-01T17:46:24.519Z,7.27
2018-01-01T17:47:52.992Z,7.25
2018-01-01T17:49:20.244Z,7.22
2018-01-01T17:50:47.254Z,7.22
2018-01-01T17:52:13.985Z,7.22
2018-01-01T17:53:34.310Z,7.22
2018-01-01T17:55:07.580Z,7.22
2018-01-01T17:56:35.598Z,7.23
2018-01-01T17:58:01.407Z,7.22
2018-01-01T17:59:28.290Z,7.22
2018-01-01T18:00:55.768Z,7.20
2018-01-01T18:02:22.608Z,7.18
2018-01-01T18:03:49.951Z,7.16
2018-01-01T18:05:16.701Z,7.15
2018-01-01T18:06:43.694Z,7.12
2018-01-01T18:08:10.675Z,7.10
2018-01-01T18:09:37.971Z,7.07
2018-01-01T18:11:06.063Z,7.05
2018-01-01T18:12:32.561Z,7.02
2018-01-01T18:13:59.740Z,6.99
2018-01-01T18:15:27.509Z,6.98
2018-01-01T18:16:53.514Z,6.97
2018-01-01T18:18:21.542Z,6.94
2018-01-01T18:19:47.337Z,6.93
2018-01-01T18:21:14.243Z,6.92
2018-01-01T18:22:42.563Z,6.91
2018-01-01T18:24:08.646Z,6.91
2018-01-01T18:25:35.911Z,6.88
2018-01-01T18:27:03.363Z,6.88
2018-01-01T18:28:31.605Z,6.88
2018-01-01T18:29:58.715Z,6.88
2018-01-01T18:31:26.074Z,6.87
2018-01-01T18:32:52.008Z,6.86
2018-01-01T18:34:19.288Z,6.85
2018-01-01T18:35:46.259Z,6.84
2018-01-01T18:37:13.220Z,6.82
2018-01-01T18:38:40.431Z,6.79
2018-01-01T18:40:07.385Z,6.79
2018-01-01T18:41:35.721Z,6.78
2018-01-01T18:43:02.106Z,6.77
2018-01-01T18:44:29.040Z,6.76
2018-01-01T18:45:57.214Z,6.75
2018-01-01T18:47:24.658Z,6.74
2018-01-01T18:48:51.748Z,6.74
2018-01-01T18:50:17.956Z,6.72
2018-01-01T18:51:45.331Z,6.71
2018-01-01T18:53:12.692Z,6.71
2018-01-01T18:54:40.081Z,6.70
2018-01-01T18:56:07.026Z,6.69
2018-01-01T18:57:34.258Z,6.68
2018-01-01T18:59:01.443Z,6.67
2018-01-01T19:00:28.736Z,6.65
2018-01-01T19:01:56.064Z,6.63
2018-01-01T19:03:23.959Z,6.61
2018-01-01T19:04:50.902Z,6.59
2018-01-01T19:06:18.122Z,6.58
2018-01-01T19:07:44.016Z,6.57
2018-01-01T19:09:11.944Z,6.55
2018-01-01T19:10:32.224Z,6.55
2018-01-01T19:12:06.230Z,6.53
2018-01-01T19:13:33.547Z,6.52
2018-01-01T19:15:00.831Z,6.52
2018-01-01T19:16:23.058Z,6.52
2018-01-01T19:17:54.331Z,6.51
2018-01-01T19:19:20.752Z,6.50
2018-01-01T19:20:47.410Z,6.49
2018-01-01T19:22:14.360Z,6.47